createdAt,value
2019-05-14T00:01:03.458Z,24.75
2019-05-14T00:03:31.221Z,24.37
2019-05-14T00:06:02.074Z,25.00
2019-05-14T00:08:31.415Z,24.32
2019-05-14T00:11:01.397Z,25.52
2019-05-14T00:13:32.184Z,25.12
2019-05-14T00:16:01.419Z,28.07
2019-05-14T00:18:31.479Z,25.40
2019-05-14T00:21:01.888Z,31.02
2019-05-14T00:23:31.904Z,25.23
2019-05-14T00:26:01.804Z,26.40
2019-05-14T00:28:31.776Z,29.00
2019-05-14T00:31:02.676Z,28.10
2019-05-14T00:33:31.571Z,26.02
2019-05-14T00:36:02.091Z,23.70
2019-05-14T00:38:31.556Z,24.02
2019-05-14T00:41:02.033Z,26.62
2019-05-14T00:43:32.351Z,24.20
2019-05-14T00:46:01.661Z,23.98
2019-05-14T00:48:31.735Z,22.85
2019-05-14T00:51:02.227Z,24.67
2019-05-14T00:53:32.001Z,23.80
2019-05-14T00:56:02.253Z,26.95
2019-05-14T00:58:31.104Z,26.00
2019-05-14T01:01:01.602Z,27.45
2019-05-14T01:03:32.187Z,26.23
2019-05-14T01:06:02.598Z,24.47
2019-05-14T01:08:31.920Z,23.83
2019-05-14T01:11:01.615Z,24.10
2019-05-14T01:13:31.291Z,25.35
2019-05-14T01:16:01.670Z,21.97
2019-05-14T01:18:32.305Z,19.07
2019-05-14T01:21:01.103Z,23.62
2019-05-14T01:23:32.084Z,18.82
2019-05-14T01:26:02.046Z,20.50
2019-05-14T01:28:32.123Z,18.02
2019-05-14T01:31:01.182Z,18.40
2019-05-14T01:33:31.873Z,18.27
2019-05-14T01:36:02.053Z,17.48
2019-05-14T01:38:31.481Z,18.10
2019-05-14T01:41:01.861Z,18.60
2019-05-14T01:43:31.544Z,16.07
2019-05-14T01:46:01.883Z,17.75
2019-05-14T01:48:31.303Z,16.52
2019-05-14T01:51:01.515Z,17.25
2019-05-14T01:53:31.188Z,17.15
2019-05-14T01:56:01.566Z,15.90
2019-05-14T01:58:31.157Z,17.23
2019-05-14T02:01:01.936Z,16.15
2019-05-14T02:03:32.346Z,17.50
2019-05-14T02:06:01.482Z,16.55
2019-05-14T02:08:32.288Z,17.02
2019-05-14T02:11:01.601Z,19.50
2019-05-14T02:13:32.172Z,21.05
2019-05-14T02:16:01.596Z,21.60
2019-05-14T02:18:31.113Z,23.02
2019-05-14T02:21:01.529Z,20.80
2019-05-14T02:23:32.050Z,20.17
2019-05-14T02:26:02.501Z,19.73
2019-05-14T02:28:31.480Z,19.98
2019-05-14T02:31:03.282Z,20.62
2019-05-14T02:33:30.952Z,19.92
2019-05-14T02:36:00.140Z,19.17
2019-05-14T02:38:29.945Z,20.88
2019-05-14T02:41:00.056Z,21.20
2019-05-14T02:43:29.518Z,24.35
2019-05-14T02:46:10.021Z,23.25
2019-05-14T02:48:29.280Z,22.62
2019-05-14T02:50:59.894Z,22.25
2019-05-14T02:53:29.666Z,22.40
2019-05-14T02:55:59.510Z,21.05
2019-05-14T02:58:30.007Z,22.93
2019-05-14T03:01:00.352Z,18.32
2019-05-14T03:03:29.956Z,22.70
2019-05-14T03:06:00.350Z,22.45
2019-05-14T03:08:30.411Z,25.08
2019-05-14T03:11:00.251Z,26.73
2019-05-14T03:13:29.764Z,27.25
2019-05-14T03:15:59.473Z,30.68
2019-05-14T03:18:29.627Z,30.37
2019-05-14T03:21:00.818Z,34.15
2019-05-14T03:23:30.292Z,30.75
2019-05-14T03:26:00.565Z,31.57
2019-05-14T03:28:30.332Z,31.75
2019-05-14T03:31:03.064Z,29.87
2019-05-14T03:33:33.206Z,32.15
2019-05-14T03:36:08.473Z,22.70
2019-05-14T03:38:30.014Z,27.87
2019-05-14T03:41:00.123Z,25.75
2019-05-14T03:43:29.684Z,30.77
2019-05-14T03:45:59.376Z,28.20
2019-05-14T03:48:29.679Z,27.48
2019-05-14T03:51:00.171Z,32.70
2019-05-14T03:53:29.551Z,28.92
2019-05-14T03:55:59.894Z,34.67
2019-05-14T03:58:29.964Z,32.30
2019-05-14T04:01:01.930Z,39.18
2019-05-14T04:03:31.294Z,35.10
2019-05-14T04:06:00.078Z,32.28
2019-05-14T04:08:29.460Z,33.50
2019-05-14T04:10:59.077Z,33.60
2019-05-14T04:13:30.270Z,33.83
2019-05-14T04:16:00.198Z,25.82
2019-05-14T04:18:29.134Z,26.40
2019-05-14T04:20:59.582Z,24.05
2019-05-14T04:23:29.056Z,23.95
2019-05-14T04:26:00.644Z,21.97
2019-05-14T04:28:29.789Z,22.70
2019-05-14T04:30:59.682Z,28.23
2019-05-14T04:33:30.409Z,19.27
2019-05-14T04:36:00.104Z,20.80
2019-05-14T04:38:29.961Z,18.35
2019-05-14T04:40:59.931Z,24.35
2019-05-14T04:43:29.632Z,22.42
2019-05-14T04:45:59.139Z,17.82
2019-05-14T04:48:36.520Z,19.75
2019-05-14T04:51:00.465Z,20.30
2019-05-14T04:53:30.909Z,24.40
2019-05-14T04:56:00.142Z,20.32
2019-05-14T04:58:29.842Z,21.57
2019-05-14T05:01:00.451Z,20.25
2019-05-14T05:03:31.515Z,24.12
2019-05-14T05:05:59.215Z,21.27
2019-05-14T05:08:30.342Z,26.12
2019-05-14T05:11:00.028Z,40.98
2019-05-14T05:13:29.273Z,47.60
2019-05-14T05:15:59.414Z,45.05
2019-05-14T05:18:29.511Z,32.45
2019-05-14T05:20:58.570Z,31.05
2019-05-14T05:23:28.168Z,34.45
2019-05-14T05:25:58.501Z,27.17
2019-05-14T05:28:28.401Z,26.62
2019-05-14T05:30:58.609Z,26.45
2019-05-14T05:33:29.352Z,27.52
2019-05-14T05:35:59.258Z,25.90
2019-05-14T05:38:29.243Z,26.20
2019-05-14T05:41:00.246Z,25.17
2019-05-14T05:43:28.654Z,25.88
2019-05-14T05:45:59.210Z,24.37
2019-05-14T05:48:28.557Z,24.20
2019-05-14T05:50:59.215Z,23.62
2019-05-14T05:53:28.760Z,31.12
2019-05-14T05:55:59.239Z,36.25
2019-05-14T05:58:29.980Z,30.68
2019-05-14T06:00:59.135Z,31.87
2019-05-14T06:03:30.069Z,32.42
2019-05-14T06:05:59.349Z,31.60
2019-05-14T06:08:28.241Z,31.07
2019-05-14T06:10:59.189Z,29.42
2019-05-14T06:13:28.728Z,30.30
2019-05-14T06:15:59.093Z,28.30
2019-05-14T06:18:28.609Z,29.02
2019-05-14T06:20:58.623Z,28.85
2019-05-14T06:23:28.413Z,32.25
2019-05-14T06:25:59.813Z,34.33
2019-05-14T06:28:32.466Z,34.38
2019-05-14T06:30:58.997Z,43.65
2019-05-14T06:33:28.670Z,47.25
2019-05-14T06:35:59.159Z,50.85
2019-05-14T06:38:29.514Z,55.50
2019-05-14T06:40:59.337Z,61.10
2019-05-14T06:43:28.729Z,52.90
2019-05-14T06:45:58.580Z,61.10
2019-05-14T06:48:33.621Z,58.08
2019-05-14T06:50:58.316Z,59.53
2019-05-14T06:53:29.009Z,59.65
2019-05-14T06:55:58.827Z,69.67
2019-05-14T06:58:29.791Z,67.53
2019-05-14T07:00:58.724Z,69.40
2019-05-14T07:03:28.093Z,69.70
2019-05-14T07:05:59.369Z,58.95
2019-05-14T07:08:28.583Z,55.73
2019-05-14T07:10:59.244Z,56.00
2019-05-14T07:13:29.267Z,54.70
2019-05-14T07:15:58.449Z,56.42
2019-05-14T07:18:30.159Z,56.63
2019-05-14T07:20:58.856Z,49.85
2019-05-14T07:23:28.974Z,64.30
2019-05-14T07:25:58.891Z,67.50
2019-05-14T07:28:28.894Z,58.33
2019-05-14T07:30:59.323Z,51.33
2019-05-14T07:33:29.336Z,51.25
2019-05-14T07:35:59.421Z,54.40
2019-05-14T07:38:28.535Z,50.73
2019-05-14T07:40:58.514Z,51.20
2019-05-14T07:43:28.623Z,53.23
2019-05-14T07:45:58.241Z,54.15
2019-05-14T07:48:28.745Z,65.60
2019-05-14T07:51:00.039Z,65.10
2019-05-14T07:53:36.069Z,57.60
2019-05-14T07:55:59.183Z,58.98
2019-05-14T07:58:28.280Z,61.90
2019-05-14T08:00:58.550Z,62.20
2019-05-14T08:03:28.623Z,61.37
2019-05-14T08:05:58.842Z,73.42
2019-05-14T08:08:29.271Z,55.95
2019-05-14T08:10:59.171Z,59.50
2019-05-14T08:13:28.442Z,64.87
2019-05-14T08:15:58.331Z,64.03
2019-05-14T08:18:29.010Z,68.07
2019-05-14T08:20:59.267Z,66.77
2019-05-14T08:23:28.248Z,66.28
2019-05-14T08:25:58.712Z,57.40
2019-05-14T08:28:29.150Z,65.50
2019-05-14T08:30:58.499Z,60.00
2019-05-14T08:33:32.416Z,65.92
2019-05-14T08:36:00.929Z,54.23
2019-05-14T08:38:29.420Z,62.65
2019-05-14T08:40:58.905Z,57.03
2019-05-14T08:43:29.181Z,58.55
2019-05-14T08:45:58.746Z,50.65
2019-05-14T08:48:29.676Z,58.52
2019-05-14T08:50:58.704Z,44.88
2019-05-14T08:53:28.738Z,48.98
2019-05-14T08:55:58.938Z,52.35
2019-05-14T08:58:29.908Z,55.43
2019-05-14T09:00:58.847Z,48.13
2019-05-14T09:03:28.738Z,49.00
2019-05-14T09:06:00.196Z,57.98
2019-05-14T09:08:28.414Z,46.70
2019-05-14T09:10:58.956Z,65.52
2019-05-14T09:13:29.009Z,34.63
2019-05-14T09:15:58.255Z,34.18
2019-05-14T09:18:29.067Z,35.33
2019-05-14T09:20:58.246Z,37.48
2019-05-14T09:23:28.650Z,37.67
2019-05-14T09:25:58.777Z,31.95
2019-05-14T09:28:28.569Z,28.38
2019-05-14T09:30:59.622Z,31.20
2019-05-14T09:33:29.655Z,26.12
2019-05-14T09:36:13.673Z,34.03
2019-05-14T09:38:29.342Z,32.63
2019-05-14T09:41:08.377Z,23.60
2019-05-14T09:43:28.719Z,25.10
2019-05-14T09:45:58.764Z,25.72
2019-05-14T09:48:28.597Z,21.50
2019-05-14T09:50:58.607Z,25.10
2019-05-14T09:53:28.881Z,36.77
2019-05-14T09:55:58.402Z,23.52
2019-05-14T09:58:28.245Z,22.55
2019-05-14T10:00:59.083Z,23.75
2019-05-14T10:03:27.150Z,27.17
2019-05-14T10:05:58.686Z,40.60
2019-05-14T10:08:28.388Z,33.28
2019-05-14T10:10:56.051Z,25.40
2019-05-14T10:13:24.534Z,42.62
2019-05-14T10:15:53.017Z,32.45
2019-05-14T10:18:21.502Z,26.30
2019-05-14T10:20:49.994Z,27.15
2019-05-14T10:23:19.021Z,29.18
2019-05-14T10:25:47.623Z,29.05
2019-05-14T10:28:16.159Z,41.00
2019-05-14T10:30:44.639Z,27.25
2019-05-14T10:33:15.068Z,29.12
2019-05-14T10:35:43.471Z,24.05
2019-05-14T10:38:11.978Z,27.40
2019-05-14T10:40:40.443Z,24.37
2019-05-14T10:43:09.267Z,22.87
2019-05-14T10:45:38.462Z,28.30
2019-05-14T10:48:09.594Z,18.80
2019-05-14T10:50:55.140Z,19.20
2019-05-14T10:53:09.106Z,19.85
2019-05-14T10:55:38.625Z,24.65
2019-05-14T10:58:08.959Z,21.93
2019-05-14T11:00:41.472Z,24.77
2019-05-14T11:03:07.842Z,27.52
2019-05-14T11:05:41.267Z,27.35
2019-05-14T11:08:06.689Z,25.55
2019-05-14T11:10:41.886Z,21.87
2019-05-14T11:13:08.906Z,21.93
2019-05-14T11:15:39.522Z,25.05
2019-05-14T11:18:08.660Z,22.77
2019-05-14T11:20:41.682Z,19.95
2019-05-14T11:23:08.911Z,24.65
2019-05-14T11:25:38.330Z,23.50
2019-05-14T11:28:07.007Z,24.90
2019-05-14T11:30:35.487Z,19.00
2019-05-14T11:33:03.982Z,19.57
2019-05-14T11:35:32.457Z,19.77
2019-05-14T11:38:00.947Z,19.07
2019-05-14T11:40:29.585Z,18.45
2019-05-14T11:42:59.161Z,17.05
2019-05-14T11:45:27.969Z,19.98
2019-05-14T11:47:58.399Z,21.40
2019-05-14T11:50:28.708Z,20.20
2019-05-14T11:52:58.495Z,21.52
2019-05-14T11:55:27.193Z,17.42
2019-05-14T11:57:58.053Z,20.20
2019-05-14T12:00:29.191Z,20.27
2019-05-14T12:02:58.605Z,19.35
2019-05-14T12:05:26.602Z,23.12
2019-05-14T12:07:55.076Z,19.80
2019-05-14T12:10:23.582Z,24.75
2019-05-14T12:12:52.063Z,20.75
2019-05-14T12:15:20.553Z,19.67
2019-05-14T12:17:51.037Z,16.12
2019-05-14T12:20:19.260Z,18.15
2019-05-14T12:22:48.714Z,22.70
2019-05-14T12:25:18.914Z,20.27
2019-05-14T12:27:49.571Z,16.48
2019-05-14T12:30:19.645Z,17.45
2019-05-14T12:32:50.035Z,15.83
2019-05-14T12:35:19.827Z,17.95
2019-05-14T12:37:50.413Z,17.35
2019-05-14T12:40:19.523Z,15.85
2019-05-14T12:42:49.801Z,15.30
2019-05-14T12:45:19.155Z,17.92
2019-05-14T12:47:50.046Z,12.53
2019-05-14T12:50:33.581Z,13.10
2019-05-14T12:53:20.186Z,13.93
2019-05-14T12:55:50.714Z,10.58
2019-05-14T12:58:20.818Z,17.37
2019-05-14T13:00:49.304Z,11.20
2019-05-14T13:03:19.395Z,8.98
2019-05-14T13:05:49.129Z,14.20
2019-05-14T13:08:18.389Z,9.55
2019-05-14T13:10:49.195Z,10.90
2019-05-14T13:13:19.575Z,13.58
2019-05-14T13:15:48.437Z,14.18
2019-05-14T13:18:19.374Z,11.60
2019-05-14T13:20:48.156Z,11.78
2019-05-14T13:23:18.441Z,14.35
2019-05-14T13:25:47.035Z,9.83
2019-05-14T13:28:15.527Z,11.20
2019-05-14T13:30:44.063Z,8.05
2019-05-14T13:33:12.526Z,9.83
2019-05-14T13:35:41.020Z,11.00
2019-05-14T13:38:14.460Z,16.00
2019-05-14T13:40:39.789Z,18.55
2019-05-14T13:43:09.903Z,10.68
2019-05-14T13:45:39.151Z,13.20
2019-05-14T13:48:08.484Z,16.95
2019-05-14T13:50:40.022Z,18.73
2019-05-14T13:53:12.156Z,19.82
2019-05-14T13:55:44.326Z,14.47
2019-05-14T13:58:09.454Z,12.73
2019-05-14T14:00:38.016Z,17.90
2019-05-14T14:03:06.500Z,18.95
2019-05-14T14:05:35.004Z,16.97
2019-05-14T14:08:03.463Z,18.85
2019-05-14T14:10:36.693Z,20.15
2019-05-14T14:13:02.167Z,16.77
2019-05-14T14:15:30.657Z,24.05
2019-05-14T14:18:00.397Z,13.20
2019-05-14T14:20:29.227Z,16.73
2019-05-14T14:22:58.683Z,23.07
2019-05-14T14:25:29.787Z,12.60
2019-05-14T14:28:00.387Z,14.58
2019-05-14T14:30:28.696Z,21.37
2019-05-14T14:32:58.737Z,16.85
2019-05-14T14:35:30.329Z,19.45
2019-05-14T14:37:59.189Z,16.57
2019-05-14T14:40:30.195Z,16.60
2019-05-14T14:42:59.310Z,20.52
2019-05-14T14:45:29.259Z,15.53
2019-05-14T14:48:01.111Z,18.37
2019-05-14T14:50:29.106Z,15.98
2019-05-14T14:52:59.922Z,53.83
2019-05-14T14:55:30.531Z,17.00
2019-05-14T14:57:58.108Z,22.10
2019-05-14T15:00:29.125Z,18.20
2019-05-14T15:02:59.707Z,28.20
2019-05-14T15:05:29.629Z,21.82
2019-05-14T15:08:00.201Z,21.95
2019-05-14T15:10:28.442Z,23.87
2019-05-14T15:12:58.955Z,33.75
2019-05-14T15:15:27.288Z,19.57
2019-05-14T15:17:55.759Z,19.27
2019-05-14T15:20:24.250Z,26.82
2019-05-14T15:22:52.747Z,19.52
2019-05-14T15:25:21.223Z,18.48
2019-05-14T15:27:49.713Z,24.55
2019-05-14T15:30:18.213Z,18.25
2019-05-14T15:32:50.955Z,20.65
2019-05-14T15:35:19.016Z,18.57
2019-05-14T15:37:48.739Z,21.93
2019-05-14T15:40:21.983Z,18.45
2019-05-14T15:42:49.767Z,21.05
2019-05-14T15:45:18.287Z,25.57
2019-05-14T15:47:48.557Z,21.70
2019-05-14T15:50:19.736Z,19.90
2019-05-14T15:52:48.727Z,20.32
2019-05-14T15:55:18.318Z,19.37
2019-05-14T15:57:47.041Z,22.17
2019-05-14T16:00:15.530Z,18.20
2019-05-14T16:02:44.031Z,27.40
2019-05-14T16:05:12.508Z,18.75
2019-05-14T16:07:40.997Z,19.62
2019-05-14T16:10:10.084Z,19.80
2019-05-14T16:12:39.874Z,24.82
2019-05-14T16:15:08.972Z,48.17
2019-05-14T16:17:48.204Z,20.37
2019-05-14T16:20:09.015Z,19.40
2019-05-14T16:22:39.765Z,21.70
2019-05-14T16:25:08.991Z,19.75
2019-05-14T16:27:39.646Z,18.48
2019-05-14T16:30:09.924Z,17.80
2019-05-14T16:32:39.428Z,18.65
2019-05-14T16:35:09.020Z,18.82
2019-05-14T16:37:39.197Z,18.00
2019-05-14T16:40:07.968Z,22.13
2019-05-14T16:42:39.263Z,20.62
2019-05-14T16:45:08.630Z,19.80
2019-05-14T16:47:39.494Z,17.57
2019-05-14T16:50:08.851Z,17.20
2019-05-14T16:52:41.726Z,15.88
2019-05-14T16:55:18.321Z,18.70
2019-05-14T16:57:38.973Z,17.37
2019-05-14T17:00:09.687Z,18.05
2019-05-14T17:02:37.956Z,16.37
2019-05-14T17:05:09.188Z,19.73
2019-05-14T17:07:38.535Z,17.75
2019-05-14T17:10:08.435Z,21.90
2019-05-14T17:12:49.690Z,19.00
2019-05-14T17:15:09.549Z,16.82
2019-05-14T17:17:37.783Z,19.55
2019-05-14T17:20:08.418Z,17.15
2019-05-14T17:22:39.340Z,16.90
2019-05-14T17:25:09.296Z,16.45
2019-05-14T17:27:39.142Z,17.85
2019-05-14T17:30:10.137Z,18.65
2019-05-14T17:32:39.449Z,18.20
2019-05-14T17:35:08.431Z,18.32
2019-05-14T17:37:39.345Z,17.73
2019-05-14T17:40:09.426Z,18.95
2019-05-14T17:42:39.503Z,21.17
2019-05-14T17:45:08.232Z,18.95
2019-05-14T17:47:38.769Z,16.85
2019-05-14T17:50:07.444Z,17.45
2019-05-14T17:52:41.527Z,17.90
2019-05-14T17:55:11.560Z,18.87
2019-05-14T17:57:44.172Z,20.02
2019-05-14T18:00:09.474Z,22.10
2019-05-14T18:02:38.184Z,22.05
2019-05-14T18:05:09.380Z,24.50
2019-05-14T18:07:36.929Z,20.82
2019-05-14T18:10:08.762Z,22.02
2019-05-14T18:12:39.726Z,23.83
2019-05-14T18:15:08.547Z,21.85
2019-05-14T18:17:39.424Z,23.90
2019-05-14T18:20:08.352Z,22.02
2019-05-14T18:22:42.007Z,25.88
2019-05-14T18:25:09.079Z,24.43
2019-05-14T18:27:39.298Z,22.22
2019-05-14T18:30:09.254Z,21.82
2019-05-14T18:32:37.967Z,26.73
2019-05-14T18:35:06.451Z,25.12
2019-05-14T18:37:38.630Z,24.52
2019-05-14T18:40:09.111Z,26.02
2019-05-14T18:42:39.056Z,28.45
2019-05-14T18:45:08.583Z,28.35
2019-05-14T18:47:39.522Z,31.05
2019-05-14T18:50:09.029Z,29.57
2019-05-14T18:52:39.828Z,29.63
2019-05-14T18:55:08.476Z,30.50
2019-05-14T18:57:38.218Z,33.08
2019-05-14T19:00:07.702Z,33.33
2019-05-14T19:02:38.986Z,31.57
2019-05-14T19:05:08.604Z,32.45
2019-05-14T19:07:39.518Z,35.20
2019-05-14T19:10:09.332Z,40.33
2019-05-14T19:12:38.753Z,36.17
2019-05-14T19:15:08.715Z,34.58
2019-05-14T19:17:38.660Z,31.62
2019-05-14T19:20:08.464Z,30.95
2019-05-14T19:22:39.480Z,32.00
2019-05-14T19:25:08.209Z,30.50
2019-05-14T19:27:38.066Z,31.57
2019-05-14T19:30:08.418Z,28.42
2019-05-14T19:32:38.977Z,25.77
2019-05-14T19:35:08.662Z,27.50
2019-05-14T19:37:39.109Z,28.17
2019-05-14T19:40:09.241Z,29.77
2019-05-14T19:42:39.002Z,28.83
2019-05-14T19:45:08.523Z,26.97
2019-05-14T19:47:39.740Z,28.52
2019-05-14T19:50:08.935Z,29.98
2019-05-14T19:52:39.031Z,29.25
2019-05-14T19:55:07.911Z,26.55
2019-05-14T19:57:38.441Z,24.60
2019-05-14T20:00:10.042Z,31.10
2019-05-14T20:02:38.520Z,45.38
2019-05-14T20:05:09.023Z,36.33
2019-05-14T20:07:38.791Z,33.00
2019-05-14T20:10:08.663Z,30.40
2019-05-14T20:12:39.172Z,31.70
2019-05-14T20:15:09.414Z,27.62
2019-05-14T20:17:38.352Z,27.98
2019-05-14T20:20:08.905Z,30.88
2019-05-14T20:22:39.439Z,28.60
2019-05-14T20:25:08.444Z,27.22
2019-05-14T20:27:39.033Z,24.90
2019-05-14T20:30:08.822Z,27.07
2019-05-14T20:32:37.310Z,30.05
2019-05-14T20:35:08.957Z,27.55
2019-05-14T20:37:38.733Z,27.87
2019-05-14T20:40:07.612Z,25.62
2019-05-14T20:42:38.702Z,28.87
2019-05-14T20:45:07.899Z,28.67
2019-05-14T20:47:38.776Z,32.33
2019-05-14T20:50:08.856Z,31.07
2019-05-14T20:52:36.917Z,27.98
2019-05-14T20:55:09.434Z,18.23
2019-05-14T20:57:38.710Z,14.23
2019-05-14T21:00:08.360Z,11.88
2019-05-14T21:02:39.385Z,12.05
2019-05-14T21:05:13.420Z,11.50
2019-05-14T21:07:38.640Z,9.18
2019-05-14T21:10:08.794Z,5.83
2019-05-14T21:12:39.437Z,4.72
2019-05-14T21:15:08.975Z,3.15
2019-05-14T21:17:37.984Z,3.58
2019-05-14T21:20:09.102Z,3.95
2019-05-14T21:22:40.181Z,3.72
2019-05-14T21:25:11.385Z,7.12
2019-05-14T21:27:44.897Z,8.20
2019-05-14T21:30:09.277Z,3.67
2019-05-14T21:32:39.345Z,4.80
2019-05-14T21:35:08.113Z,3.22
2019-05-14T21:37:39.022Z,2.75
2019-05-14T21:40:09.197Z,2.17
2019-05-14T21:42:38.419Z,1.77
2019-05-14T21:45:09.704Z,3.35
2019-05-14T21:47:38.749Z,2.60
2019-05-14T21:50:08.948Z,2.77
2019-05-14T21:52:41.778Z,3.02
2019-05-14T21:55:08.001Z,2.67
2019-05-14T21:57:38.175Z,3.02
2019-05-14T22:00:29.292Z,5.22
2019-05-14T22:02:58.461Z,2.17
2019-05-14T22:05:28.439Z,3.27
2019-05-14T22:07:57.990Z,5.03
2019-05-14T22:10:28.743Z,2.08
2019-05-14T22:12:58.378Z,3.58
2019-05-14T22:15:29.062Z,2.85
2019-05-14T22:17:58.771Z,2.60
2019-05-14T22:20:28.973Z,3.02
2019-05-14T22:22:59.047Z,6.12
2019-05-14T22:25:28.448Z,4.28
2019-05-14T22:28:11.146Z,7.17
2019-05-14T22:30:28.981Z,7.65
2019-05-14T22:33:00.315Z,7.67
2019-05-14T22:35:31.100Z,3.37
2019-05-14T22:37:59.694Z,2.15
2019-05-14T22:40:29.250Z,3.75
2019-05-14T22:43:00.251Z,2.60
2019-05-14T22:45:28.382Z,5.78
2019-05-14T22:47:58.888Z,5.80
2019-05-14T22:50:29.287Z,4.70
2019-05-14T22:52:58.542Z,8.05
2019-05-14T22:55:28.980Z,4.12
2019-05-14T22:57:59.307Z,5.05
2019-05-14T23:00:28.691Z,4.03
2019-05-14T23:02:57.527Z,3.83
2019-05-14T23:05:25.989Z,5.15
2019-05-14T23:07:54.465Z,4.10
2019-05-14T23:10:22.958Z,3.33
2019-05-14T23:12:51.414Z,3.85
2019-05-14T23:15:19.891Z,3.25
2019-05-14T23:17:48.383Z,3.83
2019-05-14T23:20:19.401Z,5.35
2019-05-14T23:22:49.147Z,5.03
2019-05-14T23:25:18.466Z,2.20
2019-05-14T23:27:48.209Z,2.30
2019-05-14T23:30:20.044Z,2.72
2019-05-14T23:32:49.176Z,2.50
2019-05-14T23:35:18.815Z,2.60
2019-05-14T23:37:48.909Z,1.90
2019-05-14T23:40:17.683Z,1.52
2019-05-14T23:42:48.727Z,1.60
2019-05-14T23:45:18.788Z,2.40
2019-05-14T23:47:49.030Z,1.90
2019-05-14T23:50:16.771Z,2.15
2019-05-14T23:52:45.238Z,2.08
2019-05-14T23:55:13.752Z,2.70
2019-05-14T23:57:42.211Z,2.60
